sensor_id;sensor_type;location;lat;lon;timestamp;pressure;altitude;pressure_sealevel;temperature;humidity
38452;BME280;24231;52.514;13.438;2023-04-27T00:02:01;101328.97;;;10.35;42.62
38452;BME280;24231;52.514;13.438;2023-04-27T00:04:28;101326.27;;;10.57;41.76
38452;BME280;24231;52.514;13.438;2023-04-27T00:06:55;101325.07;;;10.83;41.13
38452;BME280;24231;52.514;13.438;2023-04-27T00:09:22;101325.96;;;9.09;44.16
38452;BME280;24231;52.514;13.438;2023-04-27T00:11:50;101321.04;;;10.89;40.90
38452;BME280;24231;52.514;13.438;2023-04-27T00:14:17;101317.56;;;11.27;39.95
38452;BME280;24231;52.514;13.438;2023-04-27T00:16:44;101320.51;;;9.81;42.63
38452;BME280;24231;52.514;13.438;2023-04-27T00:19:12;101320.34;;;9.79;42.65
38452;BME280;24231;52.514;13.438;2023-04-27T00:21:39;101316.10;;;9.89;42.45
38452;BME280;24231;52.514;13.438;2023-04-27T00:24:07;101317.07;;;10.01;42.67
38452;BME280;24231;52.514;13.438;2023-04-27T00:26:34;101316.89;;;9.85;42.25
38452;BME280;24231;52.514;13.438;2023-04-27T00:29:01;101319.07;;;10.63;41.69
38452;BME280;24231;52.514;13.438;2023-04-27T00:31:28;101317.95;;;11.17;40.31
38452;BME280;24231;52.514;13.438;2023-04-27T00:33:55;101320.33;;;10.86;40.67
38452;BME280;24231;52.514;13.438;2023-04-27T00:36:23;101320.78;;;10.55;41.26
38452;BME280;24231;52.514;13.438;2023-04-27T00:38:50;101320.43;;;10.90;40.78
38452;BME280;24231;52.514;13.438;2023-04-27T00:41:18;101322.22;;;10.21;41.76
38452;BME280;24231;52.514;13.438;2023-04-27T00:43:45;101327.40;;;10.00;42.36
38452;BME280;24231;52.514;13.438;2023-04-27T00:46:13;101325.68;;;10.44;41.78
38452;BME280;24231;52.514;13.438;2023-04-27T00:48:41;101329.81;;;9.58;43.35
38452;BME280;24231;52.514;13.438;2023-04-27T00:51:08;101329.84;;;9.54;43.56
38452;BME280;24231;52.514;13.438;2023-04-27T00:53:37;101331.57;;;9.74;43.12
38452;BME280;24231;52.514;13.438;2023-04-27T00:56:06;101332.13;;;9.89;42.96
38452;BME280;24231;52.514;13.438;2023-04-27T00:58:34;101333.84;;;9.84;43.04
38452;BME280;24231;52.514;13.438;2023-04-27T01:01:01;101339.09;;;9.30;44.26
38452;BME280;24231;52.514;13.438;2023-04-27T01:03:29;101339.53;;;9.40;43.95
38452;BME280;24231;52.514;13.438;2023-04-27T01:05:57;101335.32;;;10.27;42.27
38452;BME280;24231;52.514;13.438;2023-04-27T01:08:24;101340.54;;;9.65;43.29
38452;BME280;24231;52.514;13.438;2023-04-27T01:10:52;101342.09;;;9.16;44.08
38452;BME280;24231;52.514;13.438;2023-04-27T01:13:19;101342.62;;;9.06;44.52
38452;BME280;24231;52.514;13.438;2023-04-27T01:15:46;101341.82;;;8.86;44.49
38452;BME280;24231;52.514;13.438;2023-04-27T01:18:14;101344.04;;;8.68;45.36
38452;BME280;24231;52.514;13.438;2023-04-27T01:20:41;101343.63;;;8.91;44.93
38452;BME280;24231;52.514;13.438;2023-04-27T01:23:12;101342.12;;;9.20;43.83
38452;BME280;24231;52.514;13.438;2023-04-27T01:25:39;101345.97;;;8.23;45.77
38452;BME280;24231;52.514;13.438;2023-04-27T01:28:06;101346.17;;;9.62;43.72
38452;BME280;24231;52.514;13.438;2023-04-27T01:30:33;101344.83;;;10.00;42.62
38452;BME280;24231;52.514;13.438;2023-04-27T01:33:01;101345.26;;;9.97;42.91
38452;BME280;24231;52.514;13.438;2023-04-27T01:35:28;101352.47;;;9.11;44.97
38452;BME280;24231;52.514;13.438;2023-04-27T01:37:56;101351.95;;;10.00;43.20
38452;BME280;24231;52.514;13.438;2023-04-27T01:40:23;101358.05;;;8.95;45.63
38452;BME280;24231;52.514;13.438;2023-04-27T01:43:00;101355.74;;;9.76;43.21
38452;BME280;24231;52.514;13.438;2023-04-27T01:45:36;101357.56;;;10.50;41.87
38452;BME280;24231;52.514;13.438;2023-04-27T01:48:03;101358.46;;;10.64;41.56
38452;BME280;24231;52.514;13.438;2023-04-27T01:50:30;101357.73;;;10.65;41.74
38452;BME280;24231;52.514;13.438;2023-04-27T01:52:58;101357.23;;;11.11;41.27
38452;BME280;24231;52.514;13.438;2023-04-27T01:55:25;101362.92;;;9.31;44.70
38452;BME280;24231;52.514;13.438;2023-04-27T01:57:52;101367.91;;;9.30;45.12
38452;BME280;24231;52.514;13.438;2023-04-27T02:00:20;101363.85;;;10.13;43.73
38452;BME280;24231;52.514;13.438;2023-04-27T02:02:48;101368.81;;;9.54;44.58
38452;BME280;24231;52.514;13.438;2023-04-27T02:05:20;101368.10;;;10.04;43.95
38452;BME280;24231;52.514;13.438;2023-04-27T02:07:47;101369.86;;;9.08;45.58
38452;BME280;24231;52.514;13.438;2023-04-27T02:10:14;101372.20;;;8.87;45.90
38452;BME280;24231;52.514;13.438;2023-04-27T02:12:41;101371.23;;;10.16;43.21
38452;BME280;24231;52.514;13.438;2023-04-27T02:15:09;101375.24;;;8.80;45.46
38452;BME280;24231;52.514;13.438;2023-04-27T02:17:37;101377.70;;;8.34;47.13
38452;BME280;24231;52.514;13.438;2023-04-27T02:20:05;101381.99;;;9.48;44.31
38452;BME280;24231;52.514;13.438;2023-04-27T02:22:32;101383.46;;;8.81;46.46
38452;BME280;24231;52.514;13.438;2023-04-27T02:24:59;101377.01;;;10.06;43.17
38452;BME280;24231;52.514;13.438;2023-04-27T02:27:27;101387.89;;;8.63;45.64
38452;BME280;24231;52.514;13.438;2023-04-27T02:29:54;101386.19;;;9.63;43.72
38452;BME280;24231;52.514;13.438;2023-04-27T02:32:21;101387.22;;;10.25;42.96
38452;BME280;24231;52.514;13.438;2023-04-27T02:34:49;101388.81;;;9.85;42.97
38452;BME280;24231;52.514;13.438;2023-04-27T02:37:16;101392.13;;;8.29;46.58
38452;BME280;24231;52.514;13.438;2023-04-27T02:39:44;101387.75;;;8.86;45.37
38452;BME280;24231;52.514;13.438;2023-04-27T02:42:11;101388.58;;;8.62;45.43
38452;BME280;24231;52.514;13.438;2023-04-27T02:44:38;101390.78;;;8.30;46.44
38452;BME280;24231;52.514;13.438;2023-04-27T02:47:06;101391.24;;;9.18;44.59
38452;BME280;24231;52.514;13.438;2023-04-27T02:49:34;101391.28;;;8.70;45.87
38452;BME280;24231;52.514;13.438;2023-04-27T02:52:01;101393.66;;;9.22;44.61
38452;BME280;24231;52.514;13.438;2023-04-27T02:54:28;101392.07;;;8.85;45.25
38452;BME280;24231;52.514;13.438;2023-04-27T02:56:55;101391.10;;;8.63;45.96
38452;BME280;24231;52.514;13.438;2023-04-27T02:59:23;101396.72;;;9.23;44.61
38452;BME280;24231;52.514;13.438;2023-04-27T03:01:50;101399.78;;;8.46;46.05
38452;BME280;24231;52.514;13.438;2023-04-27T03:04:18;101403.76;;;8.44;46.10
38452;BME280;24231;52.514;13.438;2023-04-27T03:06:45;101408.28;;;7.69;47.78
38452;BME280;24231;52.514;13.438;2023-04-27T03:09:12;101404.54;;;8.80;45.23
38452;BME280;24231;52.514;13.438;2023-04-27T03:11:40;101403.08;;;8.62;45.78
38452;BME280;24231;52.514;13.438;2023-04-27T03:14:07;101404.98;;;9.83;43.12
38452;BME280;24231;52.514;13.438;2023-04-27T03:16:35;101410.33;;;8.23;45.95
38452;BME280;24231;52.514;13.438;2023-04-27T03:19:02;101403.82;;;8.62;44.68
38452;BME280;24231;52.514;13.438;2023-04-27T03:21:29;101405.98;;;9.68;43.22
38452;BME280;24231;52.514;13.438;2023-04-27T03:23:57;101409.22;;;9.35;43.62
38452;BME280;24231;52.514;13.438;2023-04-27T03:26:24;101406.28;;;10.04;42.55
38452;BME280;24231;52.514;13.438;2023-04-27T03:28:52;101406.08;;;8.82;45.22
38452;BME280;24231;52.514;13.438;2023-04-27T03:31:19;101409.09;;;9.23;44.30
38452;BME280;24231;52.514;13.438;2023-04-27T03:33:46;101414.24;;;9.89;43.19
38452;BME280;24231;52.514;13.438;2023-04-27T03:36:14;101416.80;;;8.99;44.47
38452;BME280;24231;52.514;13.438;2023-04-27T03:38:40;101418.07;;;9.13;44.81
38452;BME280;24231;52.514;13.438;2023-04-27T03:41:08;101423.77;;;8.30;46.37
38452;BME280;24231;52.514;13.438;2023-04-27T03:43:35;101421.37;;;8.95;44.62
38452;BME280;24231;52.514;13.438;2023-04-27T03:46:02;101425.54;;;8.37;46.08
38452;BME280;24231;52.514;13.438;2023-04-27T03:48:30;101427.30;;;9.28;44.37
38452;BME280;24231;52.514;13.438;2023-04-27T03:50:59;101428.23;;;9.95;43.08
38452;BME280;24231;52.514;13.438;2023-04-27T03:53:26;101429.98;;;9.88;43.05
38452;BME280;24231;52.514;13.438;2023-04-27T03:55:53;101434.31;;;9.24;44.03
38452;BME280;24231;52.514;13.438;2023-04-27T03:58:21;101438.73;;;8.21;46.33
38452;BME280;24231;52.514;13.438;2023-04-27T04:00:48;101437.10;;;9.18;44.49
38452;BME280;24231;52.514;13.438;2023-04-27T04:03:16;101438.00;;;9.21;44.10
38452;BME280;24231;52.514;13.438;2023-04-27T04:05:43;101439.28;;;9.26;44.25
38452;BME280;24231;52.514;13.438;2023-04-27T04:08:11;101439.32;;;9.30;44.04
38452;BME280;24231;52.514;13.438;2023-04-27T04:10:38;101445.06;;;8.65;45.65
38452;BME280;24231;52.514;13.438;2023-04-27T04:13:05;101443.66;;;9.69;43.22
38452;BME280;24231;52.514;13.438;2023-04-27T04:15:33;101450.05;;;9.19;44.82
38452;BME280;24231;52.514;13.438;2023-04-27T04:18:01;101455.07;;;9.47;43.88
38452;BME280;24231;52.514;13.438;2023-04-27T04:20:27;101459.33;;;9.29;44.34
38452;BME280;24231;52.514;13.438;2023-04-27T04:22:55;101459.79;;;8.64;45.59
38452;BME280;24231;52.514;13.438;2023-04-27T04:25:22;101458.57;;;10.00;42.78
38452;BME280;24231;52.514;13.438;2023-04-27T04:27:50;101458.65;;;9.69;43.10
38452;BME280;24231;52.514;13.438;2023-04-27T04:30:17;101458.63;;;10.10;42.90
38452;BME280;24231;52.514;13.438;2023-04-27T04:32:45;101461.99;;;10.07;42.29
38452;BME280;24231;52.514;13.438;2023-04-27T04:35:12;101462.67;;;10.03;42.37
38452;BME280;24231;52.514;13.438;2023-04-27T04:37:39;101461.13;;;10.61;41.06
38452;BME280;24231;52.514;13.438;2023-04-27T04:40:08;101461.16;;;10.67;40.26
38452;BME280;24231;52.514;13.438;2023-04-27T04:42:35;101464.70;;;9.96;41.81
38452;BME280;24231;52.514;13.438;2023-04-27T04:45:03;101464.57;;;9.86;42.39
38452;BME280;24231;52.514;13.438;2023-04-27T04:47:31;101466.37;;;9.27;43.67
38452;BME280;24231;52.514;13.438;2023-04-27T04:49:58;101465.66;;;9.62;43.00
38452;BME280;24231;52.514;13.438;2023-04-27T04:52:25;101467.17;;;9.19;43.87
38452;BME280;24231;52.514;13.438;2023-04-27T04:54:54;101468.63;;;10.46;41.44
38452;BME280;24231;52.514;13.438;2023-04-27T04:57:20;101471.35;;;10.02;42.54
38452;BME280;24231;52.514;13.438;2023-04-27T04:59:48;101477.42;;;10.39;41.81
38452;BME280;24231;52.514;13.438;2023-04-27T05:02:15;101480.37;;;10.11;41.97
38452;BME280;24231;52.514;13.438;2023-04-27T05:04:43;101479.13;;;10.83;41.31
38452;BME280;24231;52.514;13.438;2023-04-27T05:07:11;101482.36;;;9.03;43.98
38452;BME280;24231;52.514;13.438;2023-04-27T05:09:38;101485.00;;;10.36;41.55
38452;BME280;24231;52.514;13.438;2023-04-27T05:12:05;101484.45;;;9.25;43.58
38452;BME280;24231;52.514;13.438;2023-04-27T05:14:33;101482.58;;;9.43;43.31
38452;BME280;24231;52.514;13.438;2023-04-27T05:17:00;101482.23;;;10.61;40.97
38452;BME280;24231;52.514;13.438;2023-04-27T05:19:28;101483.97;;;10.69;41.50
38452;BME280;24231;52.514;13.438;2023-04-27T05:21:56;101487.02;;;10.07;42.20
38452;BME280;24231;52.514;13.438;2023-04-27T05:24:23;101489.41;;;9.96;42.35
38452;BME280;24231;52.514;13.438;2023-04-27T05:26:50;101486.23;;;9.12;44.38
38452;BME280;24231;52.514;13.438;2023-04-27T05:29:18;101483.48;;;9.79;43.35
38452;BME280;24231;52.514;13.438;2023-04-27T05:31:45;101482.52;;;8.76;45.43
38452;BME280;24231;52.514;13.438;2023-04-27T05:34:12;101480.70;;;9.71;43.63
38452;BME280;24231;52.514;13.438;2023-04-27T05:36:39;101479.24;;;9.86;42.80
38452;BME280;24231;52.514;13.438;2023-04-27T05:39:06;101485.37;;;10.44;42.13
38452;BME280;24231;52.514;13.438;2023-04-27T05:41:33;101483.82;;;10.27;42.30
38452;BME280;24231;52.514;13.438;2023-04-27T05:44:01;101487.67;;;9.09;45.10
38452;BME280;24231;52.514;13.438;2023-04-27T05:46:28;101491.09;;;9.81;42.97
38452;BME280;24231;52.514;13.438;2023-04-27T05:48:55;101489.18;;;9.72;43.88
38452;BME280;24231;52.514;13.438;2023-04-27T05:51:23;101490.54;;;10.35;42.49
38452;BME280;24231;52.514;13.438;2023-04-27T05:53:50;101488.81;;;10.76;41.16
38452;BME280;24231;52.514;13.438;2023-04-27T05:56:17;101491.27;;;10.78;41.32
38452;BME280;24231;52.514;13.438;2023-04-27T05:58:44;101491.55;;;11.14;40.76
38452;BME280;24231;52.514;13.438;2023-04-27T06:01:11;101495.95;;;10.65;41.17
38452;BME280;24231;52.514;13.438;2023-04-27T06:03:38;101502.41;;;9.79;42.62
38452;BME280;24231;52.514;13.438;2023-04-27T06:06:06;101504.44;;;9.61;43.71
38452;BME280;24231;52.514;13.438;2023-04-27T06:08:33;101507.28;;;9.46;44.35
38452;BME280;24231;52.514;13.438;2023-04-27T06:11:00;101512.05;;;10.32;41.57
38452;BME280;24231;52.514;13.438;2023-04-27T06:13:27;101510.21;;;10.07;42.80
38452;BME280;24231;52.514;13.438;2023-04-27T06:15:55;101512.89;;;10.24;41.94
38452;BME280;24231;52.514;13.438;2023-04-27T06:18:22;101509.38;;;11.66;39.70
38452;BME280;24231;52.514;13.438;2023-04-27T06:20:49;101506.05;;;11.69;39.15
38452;BME280;24231;52.514;13.438;2023-04-27T06:23:16;101509.63;;;12.46;37.93
38452;BME280;24231;52.514;13.438;2023-04-27T06:25:43;101507.82;;;12.89;36.79
38452;BME280;24231;52.514;13.438;2023-04-27T06:28:10;101510.87;;;13.77;35.21
38452;BME280;24231;52.514;13.438;2023-04-27T06:30:37;101511.02;;;13.16;35.46
38452;BME280;24231;52.514;13.438;2023-04-27T06:33:04;101518.85;;;12.49;37.00
38452;BME280;24231;52.514;13.438;2023-04-27T06:35:32;101514.38;;;13.03;36.43
38452;BME280;24231;52.514;13.438;2023-04-27T06:37:59;101514.57;;;13.13;35.02
38452;BME280;24231;52.514;13.438;2023-04-27T06:40:26;101515.47;;;13.02;35.29
38452;BME280;24231;52.514;13.438;2023-04-27T06:42:53;101514.31;;;13.35;35.05
38452;BME280;24231;52.514;13.438;2023-04-27T06:45:20;101513.27;;;13.99;33.95
38452;BME280;24231;52.514;13.438;2023-04-27T06:47:53;101517.03;;;13.87;34.37
38452;BME280;24231;52.514;13.438;2023-04-27T06:50:20;101509.06;;;14.90;31.90
38452;BME280;24231;52.514;13.438;2023-04-27T06:52:47;101509.54;;;15.40;30.79
38452;BME280;24231;52.514;13.438;2023-04-27T06:55:14;101516.40;;;15.86;30.26
38452;BME280;24231;52.514;13.438;2023-04-27T06:57:41;101516.04;;;15.64;30.79
38452;BME280;24231;52.514;13.438;2023-04-27T07:00:20;101520.14;;;15.82;30.41
38452;BME280;24231;52.514;13.438;2023-04-27T07:02:47;101517.97;;;15.24;30.75
38452;BME280;24231;52.514;13.438;2023-04-27T07:05:14;101522.23;;;13.92;32.92
38452;BME280;24231;52.514;13.438;2023-04-27T07:07:41;101522.97;;;14.40;32.37
38452;BME280;24231;52.514;13.438;2023-04-27T07:10:09;101525.64;;;14.67;31.92
38452;BME280;24231;52.514;13.438;2023-04-27T07:12:36;101523.14;;;14.25;32.16
38452;BME280;24231;52.514;13.438;2023-04-27T07:15:03;101526.56;;;14.58;31.41
38452;BME280;24231;52.514;13.438;2023-04-27T07:17:30;101528.35;;;14.30;31.73
38452;BME280;24231;52.514;13.438;2023-04-27T07:19:58;101529.52;;;13.96;32.39
38452;BME280;24231;52.514;13.438;2023-04-27T07:22:25;101531.99;;;13.02;34.33
38452;BME280;24231;52.514;13.438;2023-04-27T07:24:51;101530.90;;;14.39;32.22
38452;BME280;24231;52.514;13.438;2023-04-27T07:27:19;101529.81;;;14.37;31.76
38452;BME280;24231;52.514;13.438;2023-04-27T07:29:46;101530.77;;;14.33;32.02
38452;BME280;24231;52.514;13.438;2023-04-27T07:32:13;101528.04;;;14.21;32.75
38452;BME280;24231;52.514;13.438;2023-04-27T07:34:40;101528.40;;;14.69;32.39
38452;BME280;24231;52.514;13.438;2023-04-27T07:37:07;101522.49;;;15.36;30.95
38452;BME280;24231;52.514;13.438;2023-04-27T07:39:34;101519.99;;;15.14;31.32
38452;BME280;24231;52.514;13.438;2023-04-27T07:42:02;101520.98;;;15.63;29.85
38452;BME280;24231;52.514;13.438;2023-04-27T07:44:29;101521.74;;;16.92;28.33
38452;BME280;24231;52.514;13.438;2023-04-27T07:46:56;101525.07;;;16.97;27.89
38452;BME280;24231;52.514;13.438;2023-04-27T07:49:23;101526.10;;;16.53;28.57
38452;BME280;24231;52.514;13.438;2023-04-27T07:51:50;101526.22;;;15.81;29.18
38452;BME280;24231;52.514;13.438;2023-04-27T07:54:18;101525.09;;;15.24;29.59
38452;BME280;24231;52.514;13.438;2023-04-27T07:56:45;101528.89;;;15.16;30.11
38452;BME280;24231;52.514;13.438;2023-04-27T07:59:12;101531.02;;;15.32;29.94
38452;BME280;24231;52.514;13.438;2023-04-27T08:01:39;101535.50;;;13.47;31.93
38452;BME280;24231;52.514;13.438;2023-04-27T08:04:06;101539.26;;;13.48;32.51
38452;BME280;24231;52.514;13.438;2023-04-27T08:06:33;101537.93;;;13.64;31.99
38452;BME280;24231;52.514;13.438;2023-04-27T08:09:01;101546.12;;;11.98;34.35
38452;BME280;24231;52.514;13.438;2023-04-27T08:11:29;101544.15;;;13.27;33.27
38452;BME280;24231;52.514;13.438;2023-04-27T08:13:56;101541.12;;;13.98;32.36
38452;BME280;24231;52.514;13.438;2023-04-27T08:16:23;101542.32;;;14.16;32.32
38452;BME280;24231;52.514;13.438;2023-04-27T08:18:50;101540.52;;;14.78;31.11
38452;BME280;24231;52.514;13.438;2023-04-27T08:21:17;101533.98;;;15.01;29.98
38452;BME280;24231;52.514;13.438;2023-04-27T08:23:44;101540.56;;;14.13;31.36
38452;BME280;24231;52.514;13.438;2023-04-27T08:26:13;101546.45;;;13.31;32.33
38452;BME280;24231;52.514;13.438;2023-04-27T08:28:40;101548.18;;;13.07;32.88
38452;BME280;24231;52.514;13.438;2023-04-27T08:31:08;101544.89;;;13.59;31.39
38452;BME280;24231;52.514;13.438;2023-04-27T08:33:35;101548.95;;;13.67;31.42
38452;BME280;24231;52.514;13.438;2023-04-27T08:36:02;101547.91;;;13.76;31.14
38452;BME280;24231;52.514;13.438;2023-04-27T08:38:29;101554.16;;;13.01;32.79
38452;BME280;24231;52.514;13.438;2023-04-27T08:40:56;101552.10;;;13.15;32.19
38452;BME280;24231;52.514;13.438;2023-04-27T08:43:24;101547.28;;;11.56;34.70
38452;BME280;24231;52.514;13.438;2023-04-27T08:45:51;101553.62;;;13.17;32.63
38452;BME280;24231;52.514;13.438;2023-04-27T08:48:18;101550.64;;;13.47;32.19
38452;BME280;24231;52.514;13.438;2023-04-27T08:50:49;101558.59;;;12.33;33.81
38452;BME280;24231;52.514;13.438;2023-04-27T08:53:16;101556.01;;;11.65;34.96
38452;BME280;24231;52.514;13.438;2023-04-27T08:55:44;101551.65;;;13.03;32.68
38452;BME280;24231;52.514;13.438;2023-04-27T08:58:11;101557.07;;;12.14;33.47
38452;BME280;24231;52.514;13.438;2023-04-27T09:00:38;101558.46;;;12.50;33.15
38452;BME280;24231;52.514;13.438;2023-04-27T09:03:06;101553.13;;;11.73;34.39
38452;BME280;24231;52.514;13.438;2023-04-27T09:05:33;101554.55;;;12.37;33.40
38452;BME280;24231;52.514;13.438;2023-04-27T09:08:01;101550.31;;;13.43;31.95
38452;BME280;24231;52.514;13.438;2023-04-27T09:10:28;101556.84;;;12.75;32.83
38452;BME280;24231;52.514;13.438;2023-04-27T09:12:57;101547.22;;;12.94;32.07
38452;BME280;24231;52.514;13.438;2023-04-27T09:15:24;101550.30;;;12.96;32.58
38452;BME280;24231;52.514;13.438;2023-04-27T09:17:53;101549.42;;;13.49;31.55
38452;BME280;24231;52.514;13.438;2023-04-27T09:20:21;101549.93;;;14.38;30.66
38452;BME280;24231;52.514;13.438;2023-04-27T09:22:51;101552.73;;;14.90;30.09
38452;BME280;24231;52.514;13.438;2023-04-27T09:25:23;101546.84;;;15.22;29.54
38452;BME280;24231;52.514;13.438;2023-04-27T09:27:50;101544.00;;;14.99;29.95
38452;BME280;24231;52.514;13.438;2023-04-27T09:30:18;101540.03;;;14.30;30.02
38452;BME280;24231;52.514;13.438;2023-04-27T09:32:51;101544.68;;;14.47;30.64
38452;BME280;24231;52.514;13.438;2023-04-27T09:35:22;101541.72;;;14.51;30.44
38452;BME280;24231;52.514;13.438;2023-04-27T09:37:50;101535.85;;;13.44;32.03
38452;BME280;24231;52.514;13.438;2023-04-27T09:40:19;101537.12;;;13.17;32.44
38452;BME280;24231;52.514;13.438;2023-04-27T09:42:46;101534.04;;;13.77;31.78
38452;BME280;24231;52.514;13.438;2023-04-27T09:45:14;101531.56;;;13.15;31.82
38452;BME280;24231;52.514;13.438;2023-04-27T09:47:41;101535.17;;;12.62;32.56
38452;BME280;24231;52.514;13.438;2023-04-27T09:50:12;101526.33;;;13.83;31.61
38452;BME280;24231;52.514;13.438;2023-04-27T09:52:39;101529.02;;;14.25;31.21
38452;BME280;24231;52.514;13.438;2023-04-27T09:55:09;101524.45;;;13.40;31.95
38452;BME280;24231;52.514;13.438;2023-04-27T09:57:42;101522.10;;;13.89;31.50
38452;BME280;24231;52.514;13.438;2023-04-27T10:00:27;101520.77;;;14.05;30.73
38452;BME280;24231;52.514;13.438;2023-04-27T10:03:09;101514.87;;;14.15;30.89
38452;BME280;24231;52.514;13.438;2023-04-27T10:05:54;101515.30;;;14.86;29.17
38452;BME280;24231;52.514;13.438;2023-04-27T10:08:33;101509.70;;;14.93;27.95
38452;BME280;24231;52.514;13.438;2023-04-27T10:11:11;101515.29;;;13.48;29.78
38452;BME280;24231;52.514;13.438;2023-04-27T10:13:50;101514.48;;;13.46;29.99
38452;BME280;24231;52.514;13.438;2023-04-27T10:16:19;101509.09;;;14.24;29.42
38452;BME280;24231;52.514;13.438;2023-04-27T10:18:53;101510.65;;;14.06;29.11
38452;BME280;24231;52.514;13.438;2023-04-27T10:21:21;101507.93;;;13.71;29.27
38452;BME280;24231;52.514;13.438;2023-04-27T10:23:50;101510.38;;;13.89;28.59
38452;BME280;24231;52.514;13.438;2023-04-27T10:26:21;101504.33;;;14.98;26.22
38452;BME280;24231;52.514;13.438;2023-04-27T10:29:04;101505.15;;;14.93;26.05
38452;BME280;24231;52.514;13.438;2023-04-27T10:31:32;101504.37;;;15.94;24.57
38452;BME280;24231;52.514;13.438;2023-04-27T10:34:07;101500.13;;;16.21;25.12
38452;BME280;24231;52.514;13.438;2023-04-27T10:36:37;101498.83;;;16.20;24.73
38452;BME280;24231;52.514;13.438;2023-04-27T10:39:14;101504.91;;;15.89;25.72
38452;BME280;24231;52.514;13.438;2023-04-27T10:41:48;101503.72;;;14.36;27.51
38452;BME280;24231;52.514;13.438;2023-04-27T10:44:16;101507.71;;;15.54;26.64
38452;BME280;24231;52.514;13.438;2023-04-27T10:46:51;101505.52;;;15.50;26.89
38452;BME280;24231;52.514;13.438;2023-04-27T10:49:29;101508.38;;;15.96;26.77
38452;BME280;24231;52.514;13.438;2023-04-27T10:51:58;101502.19;;;15.50;26.76
38452;BME280;24231;52.514;13.438;2023-04-27T10:54:26;101500.62;;;15.21;26.25
38452;BME280;24231;52.514;13.438;2023-04-27T10:56:53;101505.92;;;15.95;25.75
38452;BME280;24231;52.514;13.438;2023-04-27T10:59:20;101499.63;;;15.37;25.59
38452;BME280;24231;52.514;13.438;2023-04-27T11:01:48;101502.34;;;15.32;25.03
38452;BME280;24231;52.514;13.438;2023-04-27T11:04:15;101497.72;;;15.32;24.93
38452;BME280;24231;52.514;13.438;2023-04-27T11:06:44;101500.84;;;15.73;24.55
38452;BME280;24231;52.514;13.438;2023-04-27T11:09:12;101497.58;;;14.04;26.34
38452;BME280;24231;52.514;13.438;2023-04-27T11:11:43;101490.98;;;15.08;25.03
38452;BME280;24231;52.514;13.438;2023-04-27T11:14:14;101504.59;;;14.53;25.42
38452;BME280;24231;52.514;13.438;2023-04-27T11:16:45;101498.45;;;14.35;25.92
38452;BME280;24231;52.514;13.438;2023-04-27T11:19:12;101503.06;;;14.66;26.00
38452;BME280;24231;52.514;13.438;2023-04-27T11:21:39;101510.51;;;13.42;27.91
38452;BME280;24231;52.514;13.438;2023-04-27T11:24:08;101514.04;;;13.12;28.84
38452;BME280;24231;52.514;13.438;2023-04-27T11:26:35;101514.82;;;11.37;31.66
38452;BME280;24231;52.514;13.438;2023-04-27T11:29:04;101521.54;;;12.19;30.64
38452;BME280;24231;52.514;13.438;2023-04-27T11:31:39;101527.10;;;12.02;30.47
38452;BME280;24231;52.514;13.438;2023-04-27T11:34:07;101522.55;;;12.33;29.36
38452;BME280;24231;52.514;13.438;2023-04-27T11:36:34;101521.43;;;11.75;29.83
38452;BME280;24231;52.514;13.438;2023-04-27T11:39:02;101514.19;;;13.28;27.71
38452;BME280;24231;52.514;13.438;2023-04-27T11:41:36;101515.70;;;13.43;27.33
38452;BME280;24231;52.514;13.438;2023-04-27T11:44:04;101522.51;;;13.67;27.77
38452;BME280;24231;52.514;13.438;2023-04-27T11:46:33;101520.19;;;14.29;26.79
38452;BME280;24231;52.514;13.438;2023-04-27T11:49:01;101522.41;;;14.75;26.38
38452;BME280;24231;52.514;13.438;2023-04-27T11:51:29;101521.57;;;13.26;28.06
38452;BME280;24231;52.514;13.438;2023-04-27T11:54:01;101525.72;;;14.93;26.75
38452;BME280;24231;52.514;13.438;2023-04-27T11:56:34;101529.47;;;14.63;26.87
38452;BME280;24231;52.514;13.438;2023-04-27T11:59:01;101530.53;;;15.01;26.20
38452;BME280;24231;52.514;13.438;2023-04-27T12:01:30;101535.17;;;14.36;27.50
38452;BME280;24231;52.514;13.438;2023-04-27T12:03:57;101537.19;;;13.26;29.00
38452;BME280;24231;52.514;13.438;2023-04-27T12:06:24;101543.17;;;14.79;27.68
38452;BME280;24231;52.514;13.438;2023-04-27T12:08:51;101537.83;;;15.36;26.65
38452;BME280;24231;52.514;13.438;2023-04-27T12:11:19;101539.90;;;14.52;26.89
38452;BME280;24231;52.514;13.438;2023-04-27T12:13:46;101537.07;;;14.09;27.79
38452;BME280;24231;52.514;13.438;2023-04-27T12:16:14;101534.61;;;13.51;28.76
38452;BME280;24231;52.514;13.438;2023-04-27T12:18:41;101531.30;;;13.69;28.06
38452;BME280;24231;52.514;13.438;2023-04-27T12:21:08;101535.45;;;13.35;28.17
38452;BME280;24231;52.514;13.438;2023-04-27T12:23:35;101538.03;;;14.33;27.06
38452;BME280;24231;52.514;13.438;2023-04-27T12:26:02;101537.97;;;14.16;27.60
38452;BME280;24231;52.514;13.438;2023-04-27T12:28:29;101539.63;;;14.11;27.66
38452;BME280;24231;52.514;13.438;2023-04-27T12:30:57;101539.28;;;14.52;27.16
38452;BME280;24231;52.514;13.438;2023-04-27T12:33:24;101533.97;;;14.21;26.92
38452;BME280;24231;52.514;13.438;2023-04-27T12:35:51;101543.87;;;12.70;29.45
38452;BME280;24231;52.514;13.438;2023-04-27T12:38:18;101541.69;;;13.10;29.82
38452;BME280;24231;52.514;13.438;2023-04-27T12:40:46;101539.75;;;13.39;28.87
38452;BME280;24231;52.514;13.438;2023-04-27T12:43:13;101542.87;;;13.33;29.11
38452;BME280;24231;52.514;13.438;2023-04-27T12:45:40;101540.21;;;12.75;29.85
38452;BME280;24231;52.514;13.438;2023-04-27T12:48:07;101540.30;;;13.35;28.79